Acushnet, Massachusetts
Current Conditions -  °F | °C
As of 2:53 PM on Sunday 21 Dec 2014 (Local Time) from KEWB Reporting Station
Overcast Overcast  
Wind Chill: 29°   Ceiling: 600
Heat Index: 35°   Visibility: 10mi
Dew Point: 34°   Wind: 8mph
Humidity: 96%   Direction: 360°N
Pressure: 30.27"   Gusts: NA
Location:  41.68°N, 70.91°W
Report Text: KEWB 211953Z 36007KT 10SM OVC006 02/01 A3027 RMK AO2 RAE1859B34E44UPB18E34 SLP251 P0000 T00170011
Loading
Personal Weather Stations






























Interactive Weather Map New forecast layout! Learn more

10-Day Weather Forecast

Advertisements
Track Severe Weather on mobile